Time;durP1;ratioP1;P1;durP2;ratioP2;P2;SDS_P1;SDS_P2;PMS_P1;PMS_P2;Temp;Humidity;BMP_temperature;BMP_pressure;BME280_temperature;BME280_humidity;BME280_pressure;Samples;Min_cycle;Max_cycle;Signal;HPM_P1;HPM_P2
2022/01/10 00:00:13;;;;;;;0.40;0.40;;;3.20;1.00;;;;;;5088228;28;20236;-56
2022/01/10 00:02:41;;;;;;;0.40;0.40;;;3.30;1.00;;;;;;5070690;28;20190;-57
2022/01/10 00:05:09;;;;;;;0.40;0.40;;;3.40;1.00;;;;;;5085961;28;20282;-57
2022/01/10 00:07:36;;;;;;;0.40;0.40;;;3.40;1.00;;;;;;5085679;28;20271;-57
2022/01/10 00:10:04;;;;;;;0.40;0.40;;;3.50;1.00;;;;;;5086357;28;20663;-57
2022/01/10 00:12:31;;;;;;;0.40;0.40;;;3.50;1.00;;;;;;5088629;28;20202;-57
2022/01/10 00:14:58;;;;;;;0.40;0.40;;;3.50;1.00;;;;;;5088754;28;20617;-57
2022/01/10 00:17:25;;;;;;;0.40;0.40;;;3.60;99.90;;;;;;5088623;28;20342;-56
2022/01/10 00:19:52;;;;;;;0.40;0.40;;;3.50;99.90;;;;;;5089466;28;20218;-57
2022/01/10 00:22:21;;;;;;;0.40;0.40;;;3.60;99.90;;;;;;5068407;28;20295;-57
2022/01/10 00:24:48;;;;;;;0.40;0.40;;;3.60;99.90;;;;;;5083968;28;20200;-56
2022/01/10 00:27:15;;;;;;;0.33;0.33;;;3.60;16.80;;;;;;5071423;28;20183;-57
2022/01/10 00:29:42;;;;;;;0.50;0.50;;;3.70;1.00;;;;;;5089395;28;20240;-57
2022/01/10 00:32:09;;;;;;;0.40;0.40;;;3.70;1.00;;;;;;5088167;28;20239;-56
2022/01/10 00:34:36;;;;;;;15.83;14.73;;;3.70;1.00;;;;;;5087287;28;20303;-57
2022/01/10 00:37:03;;;;;;;0.37;0.37;;;3.70;1.00;;;;;;5069297;28;20202;-57
2022/01/10 00:39:32;;;;;;;0.40;0.40;;;3.70;1.00;;;;;;5084888;28;20467;-56
2022/01/10 00:41:59;;;;;;;0.40;0.40;;;3.80;99.90;;;;;;5088061;28;20195;-56
2022/01/10 00:44:30;;;;;;;0.40;0.40;;;3.70;99.90;;;;;;5063862;28;20233;-57
2022/01/10 00:46:57;;;;;;;0.40;0.40;;;3.70;99.90;;;;;;5071318;28;20194;-56
2022/01/10 00:49:25;;;;;;;0.40;0.40;;;3.80;99.90;;;;;;5067772;28;20703;-57
2022/01/10 00:51:52;;;;;;;0.40;0.40;;;3.80;93.20;;;;;;5085919;28;20197;-57
2022/01/10 00:54:19;;;;;;;0.33;0.33;;;3.80;1.00;;;;;;5088792;28;20205;-57
2022/01/10 00:56:47;;;;;;;0.40;0.40;;;3.80;1.00;;;;;;5071265;28;20206;-57
2022/01/10 00:59:14;;;;;;;0.40;0.40;;;3.80;1.00;;;;;;5087537;28;20299;-57
2022/01/10 01:01:41;;;;;;;0.40;0.40;;;3.90;1.00;;;;;;5087164;28;20264;-57
2022/01/10 01:04:09;;;;;;;0.40;0.40;;;3.80;1.00;;;;;;5070773;28;20203;-58
2022/01/10 01:06:36;;;;;;;0.40;0.40;;;3.90;1.00;;;;;;5069165;28;20194;-58
2022/01/10 01:09:07;;;;;;;0.40;0.40;;;3.80;1.00;;;;;;5069347;28;20639;-57
2022/01/10 01:14:24;;;;;;;0.40;0.40;;;3.80;1.00;;;;;;5085003;28;20225;-57
2022/01/10 01:17:10;;;;;;;0.40;0.40;;;3.80;1.00;;;;;;5069970;28;20743;-58
2022/01/10 01:25:10;;;;;;;0.40;0.40;;;3.90;99.90;;;;;;5058201;28;20190;-57
2022/01/10 01:27:38;;;;;;;0.40;0.40;;;3.90;99.90;;;;;;5083446;28;20198;-56
2022/01/10 01:30:07;;;;;;;0.40;0.40;;;3.90;99.90;;;;;;5087227;28;20209;-57
2022/01/10 01:32:34;;;;;;;0.40;0.40;;;3.90;99.90;;;;;;5087570;28;20198;-56
2022/01/10 01:35:05;;;;;;;0.40;0.40;;;3.90;99.90;;;;;;5067627;28;20212;-57
2022/01/10 01:37:35;;;;;;;0.40;0.40;;;3.90;99.90;;;;;;5068011;28;20228;-57
2022/01/10 01:40:05;;;;;;;0.40;0.40;;;3.90;99.90;;;;;;5079582;28;20202;-56
2022/01/10 01:42:43;;;;;;;0.50;0.50;;;3.90;99.90;;;;;;5067547;28;20252;-57
2022/01/10 01:45:12;;;;;;;0.40;0.40;;;3.90;99.90;;;;;;5051267;28;20649;-59
2022/01/10 01:47:39;;;;;;;0.40;0.40;;;3.90;27.30;;;;;;5069033;28;20827;-56
2022/01/10 01:50:17;;;;;;;0.50;0.50;;;3.90;1.00;;;;;;5069216;28;20194;-57
2022/01/10 01:52:44;;;;;;;0.40;0.40;;;3.90;1.00;;;;;;5067373;28;20724;-58
2022/01/10 01:55:11;;;;;;;0.40;0.40;;;4.00;1.00;;;;;;5064649;28;20191;-57
2022/01/10 01:57:39;;;;;;;0.40;0.40;;;3.90;1.00;;;;;;5066446;28;20239;-57
2022/01/10 02:00:06;;;;;;;0.40;0.40;;;3.90;1.00;;;;;;5068997;28;20327;-56
2022/01/10 02:02:46;;;;;;;0.40;0.40;;;3.90;1.00;;;;;;5084457;28;20202;-57
2022/01/10 02:05:14;;;;;;;0.50;0.50;;;4.00;1.00;;;;;;5084297;28;20312;-56
2022/01/10 02:07:41;;;;;;;0.40;0.40;;;3.90;1.00;;;;;;5085858;28;20666;-57
2022/01/10 02:10:10;;;;;;;0.40;0.40;;;3.90;1.00;;;;;;5063535;28;20194;-57
2022/01/10 02:12:37;;;;;;;0.40;0.40;;;3.90;1.00;;;;;;5068424;28;20490;-56
2022/01/10 02:15:21;;;;;;;0.40;0.40;;;4.00;1.00;;;;;;5066157;28;20197;-55
2022/01/10 02:17:54;;;;;;;0.40;0.40;;;4.00;1.00;;;;;;5065680;28;20186;-57
2022/01/10 02:20:21;;;;;;;0.40;0.40;;;3.90;1.00;;;;;;5067560;28;20614;-57
2022/01/10 02:22:48;;;;;;;0.40;0.40;;;3.90;1.00;;;;;;5060777;28;20247;-57
2022/01/10 02:25:36;;;;;;;0.40;0.40;;;3.90;1.00;;;;;;5048844;28;20202;-58
2022/01/10 02:28:03;;;;;;;0.40;0.40;;;3.90;1.00;;;;;;5052643;28;20210;-57
2022/01/10 02:30:31;;;;;;;1.07;1.07;;;3.90;1.00;;;;;;5073876;28;20293;-56
2022/01/10 02:33:00;;;;;;;0.60;0.60;;;3.90;10.80;;;;;;5082957;28;20233;-57
2022/01/10 02:35:33;;;;;;;0.30;0.30;;;3.90;52.50;;;;;;5066900;28;20213;-57
2022/01/10 02:38:01;;;;;;;0.40;0.40;;;3.90;1.00;;;;;;5085685;28;20221;-58
2022/01/10 02:40:30;;;;;;;0.50;0.50;;;4.00;1.00;;;;;;5068279;28;20222;-57
2022/01/10 02:42:58;;;;;;;0.40;0.40;;;3.90;1.00;;;;;;5059186;28;20197;-57
2022/01/10 02:45:26;;;;;;;0.40;0.40;;;3.90;1.00;;;;;;5067526;28;20643;-57
2022/01/10 02:47:55;;;;;;;0.40;0.40;;;3.90;1.00;;;;;;5060536;28;20190;-57
2022/01/10 02:50:23;;;;;;;0.40;0.40;;;3.90;1.00;;;;;;5067822;28;20198;-57
2022/01/10 02:52:50;;;;;;;0.40;0.40;;;3.90;1.00;;;;;;5052353;28;20266;-57
2022/01/10 02:55:18;;;;;;;0.40;0.40;;;3.90;1.00;;;;;;5069309;28;20202;-57
2022/01/10 02:57:46;;;;;;;0.40;0.40;;;3.90;1.00;;;;;;5083363;28;20252;-57
2022/01/10 03:00:19;;;;;;;0.40;0.40;;;3.90;28.30;;;;;;5065257;28;20783;-57
2022/01/10 03:02:50;;;;;;;0.40;0.40;;;3.90;1.00;;;;;;5076931;28;20205;-57
2022/01/10 03:05:20;;;;;;;0.40;0.40;;;3.90;1.00;;;;;;5079371;28;20285;-56
2022/01/10 03:07:51;;;;;;;0.40;0.40;;;3.90;1.00;;;;;;5085057;28;20224;-57
2022/01/10 03:10:19;;;;;;;0.40;0.40;;;3.90;1.00;;;;;;5067394;28;20190;-57
2022/01/10 03:12:46;;;;;;;0.40;0.40;;;3.90;1.00;;;;;;5061460;28;20202;-56
2022/01/10 03:15:13;;;;;;;0.40;0.40;;;3.90;41.80;;;;;;5064561;28;20213;-57
2022/01/10 03:17:41;;;;;;;0.50;0.50;;;3.90;99.90;;;;;;5061060;28;20329;-57
2022/01/10 03:20:09;;;;;;;0.40;0.40;;;3.90;99.90;;;;;;5077032;28;20210;-57
2022/01/10 03:22:36;;;;;;;0.40;0.40;;;3.90;64.60;;;;;;5069240;28;20202;-57
2022/01/10 03:25:04;;;;;;;0.40;0.40;;;3.90;1.00;;;;;;5085369;28;20630;-57
2022/01/10 03:27:34;;;;;;;0.40;0.40;;;3.90;1.00;;;;;;5044408;28;20196;-57
2022/01/10 03:30:01;;;;;;;0.40;0.40;;;4.00;1.00;;;;;;5067810;28;20614;-57
2022/01/10 03:32:28;;;;;;;0.47;0.47;;;3.90;1.00;;;;;;5037259;28;20206;-56
2022/01/10 03:35:04;;;;;;;0.40;0.40;;;4.00;1.00;;;;;;5066963;28;20239;-57
2022/01/10 03:37:32;;;;;;;0.40;0.40;;;3.90;1.00;;;;;;5085598;28;20201;-57
2022/01/10 03:39:58;;;;;;;0.40;0.40;;;4.00;1.00;;;;;;5085220;28;20213;-58
2022/01/10 03:42:25;;;;;;;0.40;0.40;;;3.90;1.00;;;;;;5066865;28;20202;-56
2022/01/10 03:44:53;;;;;;;0.47;0.47;;;3.90;1.00;;;;;;5063196;28;20551;-57
2022/01/10 03:47:21;;;;;;;0.40;0.40;;;3.90;1.00;;;;;;5085147;28;20194;-57
2022/01/10 03:49:49;;;;;;;0.40;0.40;;;3.90;34.10;;;;;;5069197;28;20636;-57
2022/01/10 03:52:16;;;;;;;22.47;9.10;;;3.80;99.90;;;;;;5066793;28;20206;-57
2022/01/10 03:54:43;;;;;;;0.40;0.40;;;3.80;99.90;;;;;;5051066;28;20199;-57
2022/01/10 03:57:11;;;;;;;0.40;0.40;;;3.80;99.90;;;;;;5069121;28;20236;-57
2022/01/10 03:59:38;;;;;;;0.40;0.40;;;3.80;99.90;;;;;;5084455;28;20803;-57
2022/01/10 04:02:05;;;;;;;0.40;0.40;;;3.80;99.90;;;;;;5067833;28;20458;-57
2022/01/10 04:04:36;;;;;;;1.37;1.37;;;3.80;99.90;;;;;;5065145;28;20218;-57
2022/01/10 04:07:04;;;;;;;0.40;0.40;;;3.80;99.90;;;;;;5049886;28;20199;-57
2022/01/10 04:09:31;;;;;;;0.43;0.43;;;3.70;99.90;;;;;;5067738;28;20198;-57
2022/01/10 04:11:58;;;;;;;0.40;0.40;;;3.70;99.90;;;;;;5051374;28;20252;-57
2022/01/10 04:14:25;;;;;;;0.40;0.40;;;3.70;99.90;;;;;;5086868;28;20218;-57
2022/01/10 04:16:53;;;;;;;0.37;0.37;;;3.60;99.90;;;;;;5082158;28;20677;-57
2022/01/10 04:19:20;;;;;;;0.40;0.40;;;3.60;99.90;;;;;;5072754;28;20309;-58
2022/01/10 04:21:47;;;;;;;0.40;0.40;;;3.60;99.90;;;;;;5086566;28;20214;-57
2022/01/10 04:24:15;;;;;;;0.40;0.40;;;3.60;99.90;;;;;;5071481;28;20198;-57
2022/01/10 04:26:43;;;;;;;0.40;0.40;;;3.50;99.90;;;;;;5070951;28;20226;-59
2022/01/10 04:29:12;;;;;;;0.40;0.40;;;3.50;99.90;;;;;;5072330;28;20194;-58
2022/01/10 04:31:39;;;;;;;0.40;0.40;;;3.40;99.90;;;;;;5091898;28;20210;-57
2022/01/10 04:34:06;;;;;;;0.40;0.40;;;3.30;99.90;;;;;;5075277;28;20338;-58
2022/01/10 04:36:33;;;;;;;0.43;0.43;;;3.30;1.00;;;;;;5071630;28;20275;-58
2022/01/10 04:39:00;;;;;;;1.77;1.43;;;3.20;1.00;;;;;;5040396;28;20210;-58
2022/01/10 04:41:31;;;;;;;0.40;0.40;;;3.20;1.00;;;;;;5072329;28;20190;-58
2022/01/10 04:43:58;;;;;;;0.40;0.40;;;3.20;1.00;;;;;;5071340;28;20244;-59
2022/01/10 04:46:26;;;;;;;0.40;0.40;;;3.10;1.00;;;;;;5068318;28;20277;-59
2022/01/10 04:48:53;;;;;;;1.17;1.17;;;3.10;1.00;;;;;;5054270;28;20194;-58
2022/01/10 04:51:21;;;;;;;0.40;0.40;;;3.10;20.80;;;;;;5071636;28;20203;-58
2022/01/10 04:53:53;;;;;;;0.40;0.40;;;3.20;99.90;;;;;;5070868;28;20221;-58
2022/01/10 04:56:21;;;;;;;0.40;0.40;;;3.20;99.90;;;;;;5061879;28;20221;-58
2022/01/10 04:58:52;;;;;;;7.37;7.00;;;3.20;99.90;;;;;;5067918;28;20218;-58
2022/01/10 05:01:21;;;;;;;0.40;0.40;;;3.20;99.90;;;;;;5066814;28;20205;-59
2022/01/10 05:03:51;;;;;;;0.40;0.40;;;3.20;99.90;;;;;;5054922;28;20239;-58
2022/01/10 05:06:19;;;;;;;0.83;0.83;;;3.20;99.90;;;;;;5090328;28;20680;-58
2022/01/10 05:08:46;;;;;;;0.40;0.40;;;3.20;99.90;;;;;;5071485;28;20724;-57
2022/01/10 05:11:24;;;;;;;0.40;0.40;;;3.20;99.90;;;;;;5071016;28;20208;-58
2022/01/10 05:13:52;;;;;;;0.40;0.40;;;3.20;99.90;;;;;;5070034;28;20194;-57
2022/01/10 05:16:20;;;;;;;0.40;0.40;;;3.20;99.90;;;;;;5069896;28;20225;-58
2022/01/10 05:18:47;;;;;;;0.40;0.40;;;3.30;99.90;;;;;;5068514;28;20225;-59
2022/01/10 05:21:17;;;;;;;0.40;0.40;;;3.30;78.70;;;;;;5070153;28;20221;-59
2022/01/10 05:23:44;;;;;;;0.40;0.40;;;3.20;1.00;;;;;;5053915;28;20615;-59
2022/01/10 05:26:11;;;;;;;0.40;0.40;;;3.30;1.00;;;;;;5069652;28;20190;-59
2022/01/10 05:28:39;;;;;;;0.40;0.40;;;3.30;1.00;;;;;;5071116;28;20289;-59
2022/01/10 05:31:06;;;;;;;0.40;0.40;;;3.30;1.00;;;;;;5068312;28;20264;-59
2022/01/10 05:33:45;;;;;;;0.93;0.93;;;3.30;99.90;;;;;;5062700;28;20231;-59
2022/01/10 05:36:13;;;;;;;0.40;0.40;;;3.30;99.90;;;;;;5087060;28;20303;-59
2022/01/10 05:38:41;;;;;;;0.40;0.40;;;3.30;99.90;;;;;;5065350;28;20620;-58
2022/01/10 05:41:08;;;;;;;0.40;0.40;;;3.30;99.90;;;;;;5085143;28;20281;-60
2022/01/10 05:43:36;;;;;;;0.40;0.40;;;3.30;99.90;;;;;;5062762;28;20599;-58
2022/01/10 05:46:06;;;;;;;0.40;0.40;;;3.30;99.90;;;;;;5067627;28;20929;-58
2022/01/10 05:48:36;;;;;;;0.40;0.40;;;3.30;99.90;;;;;;5067300;28;20713;-58
2022/01/10 05:51:03;;;;;;;0.40;0.40;;;3.30;99.90;;;;;;5065582;28;20697;-58
2022/01/10 05:53:34;;;;;;;0.40;0.40;;;3.30;99.90;;;;;;5082392;28;20194;-58
2022/01/10 05:56:01;;;;;;;0.43;0.43;;;3.30;99.90;;;;;;5084861;28;20285;-57
2022/01/10 05:58:33;;;;;;;0.40;0.40;;;3.30;99.90;;;;;;5050662;28;20195;-58
2022/01/10 06:01:00;;;;;;;0.40;0.40;;;3.30;99.90;;;;;;5069787;28;20293;-57
2022/01/10 06:03:27;;;;;;;0.40;0.40;;;3.30;99.90;;;;;;5083345;28;20244;-58
2022/01/10 06:06:02;;;;;;;0.40;0.40;;;3.30;99.90;;;;;;5064353;28;20213;-59
2022/01/10 06:08:29;;;;;;;0.50;0.50;;;3.30;99.90;;;;;;5087282;28;20210;-59
2022/01/10 06:10:56;;;;;;;0.40;0.40;;;3.30;99.90;;;;;;5069042;28;20756;-58
2022/01/10 06:13:31;;;;;;;0.40;0.40;;;3.30;99.90;;;;;;5050447;28;20201;-58
2022/01/10 06:15:58;;;;;;;0.40;0.40;;;3.30;99.90;;;;;;5067736;28;20337;-58
2022/01/10 06:18:26;;;;;;;0.40;0.40;;;3.30;99.90;;;;;;5062909;28;20194;-59
2022/01/10 06:20:54;;;;;;;0.40;0.40;;;3.20;99.90;;;;;;5087890;28;20225;-57
2022/01/10 06:23:22;;;;;;;0.40;0.40;;;3.20;99.90;;;;;;5067407;28;20635;-57
2022/01/10 06:25:49;;;;;;;0.40;0.40;;;3.20;56.60;;;;;;5085850;28;20190;-58
2022/01/10 06:28:18;;;;;;;0.40;0.40;;;3.20;8.80;;;;;;5086649;28;20190;-57
2022/01/10 06:30:47;;;;;;;0.40;0.40;;;3.20;1.00;;;;;;5065629;28;20198;-58
2022/01/10 06:33:15;;;;;;;0.40;0.40;;;3.10;10.60;;;;;;5064588;28;20324;-58
2022/01/10 06:35:44;;;;;;;0.50;0.50;;;3.10;58.20;;;;;;5068673;28;20583;-57
2022/01/10 06:38:11;;;;;;;0.40;0.40;;;3.10;99.90;;;;;;5084856;28;20208;-58
2022/01/10 06:40:40;;;;;;;0.40;0.40;;;3.00;99.90;;;;;;5058881;28;20287;-58
2022/01/10 06:43:07;;;;;;;0.40;0.40;;;3.00;99.90;;;;;;5087604;28;20210;-57
2022/01/10 06:45:37;;;;;;;0.40;0.40;;;3.00;99.90;;;;;;5066235;28;20205;-58
2022/01/10 06:48:06;;;;;;;0.40;0.40;;;2.90;99.90;;;;;;5062759;28;20197;-58
2022/01/10 06:50:38;;;;;;;0.40;0.40;;;2.90;99.90;;;;;;5068664;28;20267;-58
2022/01/10 06:53:06;;;;;;;0.40;0.40;;;2.90;99.90;;;;;;5045964;28;20201;-58
2022/01/10 06:55:34;;;;;;;0.40;0.40;;;2.90;99.90;;;;;;5047887;28;21134;-59
2022/01/10 06:58:05;;;;;;;0.40;0.40;;;2.90;1.00;;;;;;5064309;28;20900;-58
2022/01/10 07:00:34;;;;;;;0.40;0.40;;;2.80;1.00;;;;;;5065286;28;20217;-58
2022/01/10 07:03:02;;;;;;;0.40;0.40;;;2.90;1.00;;;;;;5061531;28;20221;-57
2022/01/10 07:05:32;;;;;;;0.40;0.40;;;2.90;1.00;;;;;;5064959;28;20720;-57
2022/01/10 07:08:06;;;;;;;0.40;0.40;;;2.90;1.00;;;;;;5066393;28;20197;-60
2022/01/10 07:10:49;;;;;;;0.40;0.40;;;2.90;1.00;;;;;;5070489;28;20303;-58
2022/01/10 07:13:16;;;;;;;0.40;0.40;;;2.90;1.00;;;;;;5054548;28;20198;-57
2022/01/10 07:15:46;;;;;;;0.40;0.40;;;2.90;1.00;;;;;;5066832;28;20198;-58
2022/01/10 07:18:13;;;;;;;0.40;0.40;;;2.80;1.00;;;;;;5068147;28;20554;-58
2022/01/10 07:20:45;;;;;;;0.50;0.50;;;2.80;1.00;;;;;;5066428;28;20236;-58
2022/01/10 07:23:12;;;;;;;0.50;0.50;;;2.90;1.00;;;;;;5068989;28;20615;-58
2022/01/10 07:25:39;;;;;;;0.40;0.40;;;2.80;1.00;;;;;;5068008;28;20243;-57
2022/01/10 07:28:06;;;;;;;0.40;0.40;;;2.70;1.00;;;;;;5067534;28;20198;-59
2022/01/10 07:30:33;;;;;;;0.30;0.30;;;2.70;1.00;;;;;;5053063;28;20296;-59
2022/01/10 07:33:00;;;;;;;0.40;0.40;;;2.70;1.00;;;;;;5063171;28;20228;-59
2022/01/10 07:35:27;;;;;;;0.40;0.40;;;2.60;1.00;;;;;;5051714;28;20198;-59
2022/01/10 07:37:54;;;;;;;0.40;0.40;;;2.60;1.00;;;;;;5079431;28;20203;-59
2022/01/10 07:40:21;;;;;;;0.40;0.40;;;2.60;1.00;;;;;;5045665;28;20846;-59
2022/01/10 07:42:48;;;;;;;0.40;0.40;;;2.60;1.00;;;;;;5065303;28;20198;-60
2022/01/10 07:45:27;;;;;;;0.40;0.40;;;2.50;1.00;;;;;;5056529;28;20194;-58
2022/01/10 07:47:55;;;;;;;0.40;0.40;;;2.50;1.00;;;;;;5081512;28;20224;-60
2022/01/10 07:50:25;;;;;;;0.40;0.40;;;2.60;1.00;;;;;;5082572;28;20194;-59
2022/01/10 07:52:52;;;;;;;0.40;0.40;;;2.50;1.00;;;;;;5081807;28;20564;-59
2022/01/10 07:55:19;;;;;;;0.40;0.40;;;2.60;1.00;;;;;;5081680;28;20221;-58
2022/01/10 07:57:46;;;;;;;0.40;0.40;;;2.60;1.00;;;;;;5080449;28;20694;-60
2022/01/10 08:00:14;;;;;;;0.40;0.40;;;2.60;1.00;;;;;;5077574;28;20245;-58
2022/01/10 08:02:41;;;;;;;0.40;0.40;;;2.70;1.00;;;;;;5081572;28;20206;-58
2022/01/10 08:05:09;;;;;;;0.40;0.40;;;2.80;1.00;;;;;;5080407;28;20247;-58
2022/01/10 08:07:36;;;;;;;0.40;0.40;;;2.80;1.00;;;;;;5068796;28;20510;-57
2022/01/10 08:10:07;;;;;;;0.40;0.40;;;2.90;1.00;;;;;;5082072;28;20305;-57
2022/01/10 08:12:34;;;;;;;0.40;0.40;;;3.00;1.00;;;;;;5082057;28;20213;-58
2022/01/10 08:15:01;;;;;;;0.40;0.40;;;3.00;1.00;;;;;;5081433;28;20214;-59
2022/01/10 08:17:28;;;;;;;0.40;0.40;;;3.00;1.00;;;;;;5082276;28;20229;-58
2022/01/10 08:19:55;;;;;;;0.40;0.40;;;3.10;99.90;;;;;;5078313;28;20214;-57
2022/01/10 08:22:22;;;;;;;0.40;0.40;;;3.10;99.90;;;;;;5080255;28;20226;-57
2022/01/10 08:24:50;;;;;;;0.40;0.40;;;3.10;99.90;;;;;;5079335;28;20207;-57
2022/01/10 08:27:17;;;;;;;0.40;0.40;;;3.20;99.90;;;;;;5083985;28;20213;-59
2022/01/10 08:29:44;;;;;;;0.40;0.40;;;3.20;57.10;;;;;;5080837;28;20593;-57
2022/01/10 08:32:11;;;;;;;11.33;10.57;;;3.30;29.40;;;;;;5082881;28;20649;-57
2022/01/10 08:34:38;;;;;;;0.40;0.40;;;3.40;1.00;;;;;;5080852;28;20257;-57
2022/01/10 08:37:05;;;;;;;0.40;0.40;;;3.40;1.00;;;;;;5079898;28;20217;-58
2022/01/10 08:39:33;;;;;;;0.40;0.40;;;3.50;1.00;;;;;;5064677;28;20730;-58
2022/01/10 08:42:00;;;;;;;0.50;0.50;;;3.40;1.00;;;;;;5081799;28;20541;-59
2022/01/10 08:44:27;;;;;;;0.40;0.40;;;3.50;99.90;;;;;;5072811;28;20191;-58
2022/01/10 08:46:54;;;;;;;0.40;0.40;;;3.50;99.90;;;;;;5063613;28;21225;-58
2022/01/10 08:49:22;;;;;;;0.40;0.40;;;3.70;99.90;;;;;;5062474;28;20202;-57
2022/01/10 08:51:54;;;;;;;0.40;0.40;;;3.80;99.90;;;;;;5065301;28;20205;-57
2022/01/10 08:54:22;;;;;;;0.40;0.40;;;3.90;99.90;;;;;;5061814;28;20202;-59
2022/01/10 08:56:50;;;;;;;0.40;0.40;;;3.90;86.20;;;;;;5077990;28;20308;-57
2022/01/10 08:59:18;;;;;;;0.40;0.40;;;3.90;10.40;;;;;;5078359;28;20194;-57
2022/01/10 09:01:46;;;;;;;0.40;0.40;;;4.00;56.00;;;;;;5060680;28;20637;-56
2022/01/10 09:04:18;;;;;;;0.40;0.40;;;4.10;91.00;;;;;;5066679;28;20592;-57
2022/01/10 09:06:46;;;;;;;0.40;0.40;;;4.10;1.00;;;;;;5081136;28;20251;-57
2022/01/10 09:09:14;;;;;;;0.40;0.40;;;4.20;1.00;;;;;;5065421;28;20195;-57
2022/01/10 09:11:42;;;;;;;0.40;0.40;;;4.30;1.00;;;;;;5080816;28;20748;-57
2022/01/10 09:14:10;;;;;;;0.40;0.40;;;4.30;1.00;;;;;;5065751;28;20206;-56
2022/01/10 09:16:38;;;;;;;0.40;0.40;;;4.30;1.00;;;;;;5080990;28;20876;-57
2022/01/10 09:19:05;;;;;;;0.40;0.40;;;4.30;1.00;;;;;;5077694;28;20198;-59
2022/01/10 09:21:32;;;;;;;0.50;0.50;;;4.20;1.00;;;;;;5075989;28;20235;-57
2022/01/10 09:24:00;;;;;;;0.90;0.90;;;4.40;1.00;;;;;;5063125;28;20237;-56
2022/01/10 09:26:27;;;;;;;0.40;0.40;;;4.40;1.00;;;;;;5081116;28;21208;-57
2022/01/10 09:28:54;;;;;;;0.30;0.30;;;4.50;1.00;;;;;;5064948;28;20272;-57
2022/01/10 09:31:22;;;;;;;0.40;0.40;;;4.50;1.00;;;;;;5077572;28;20209;-56
2022/01/10 09:33:55;;;;;;;3.17;3.07;;;4.50;1.00;;;;;;5060304;28;20375;-58
2022/01/10 09:36:25;;;;;;;0.40;0.40;;;4.40;1.00;;;;;;5060688;28;20234;-57
2022/01/10 09:38:52;;;;;;;0.40;0.40;;;4.60;1.00;;;;;;5063635;28;20199;-57
2022/01/10 09:41:20;;;;;;;0.40;0.40;;;4.60;1.00;;;;;;5076471;28;20625;-57
2022/01/10 09:43:56;;;;;;;0.70;0.70;;;4.80;1.00;;;;;;5077670;28;20218;-57
2022/01/10 09:46:24;;;;;;;0.40;0.40;;;4.90;1.00;;;;;;5056320;28;20210;-57
2022/01/10 09:48:53;;;;;;;0.40;0.40;;;5.20;1.00;;;;;;5062395;28;20958;-57
2022/01/10 09:51:24;;;;;;;0.40;0.40;;;5.50;1.00;;;;;;5076088;28;20190;-56
2022/01/10 09:53:51;;;;;;;0.40;0.40;;;5.70;99.90;;;;;;5075080;28;20281;-57
2022/01/10 09:56:18;;;;;;;0.40;0.40;;;5.80;99.90;;;;;;5069067;28;20614;-57
2022/01/10 09:58:46;;;;;;;0.40;0.40;;;5.80;1.00;;;;;;5064879;28;20665;-56
2022/01/10 10:01:16;;;;;;;0.53;0.53;;;5.80;3.10;;;;;;5046868;28;20237;-57
2022/01/10 10:03:48;;;;;;;0.40;0.40;;;5.80;99.90;;;;;;5067326;28;20187;-57
2022/01/10 10:06:16;;;;;;;0.40;0.40;;;6.10;99.90;;;;;;5079243;28;20618;-57
2022/01/10 10:08:44;;;;;;;0.40;0.40;;;6.20;99.90;;;;;;5077990;28;20272;-59
2022/01/10 10:11:11;;;;;;;0.40;0.40;;;6.20;99.90;;;;;;5078461;28;20822;-59
2022/01/10 10:13:52;;;;;;;0.40;0.40;;;6.10;99.90;;;;;;5077198;28;20193;-58
2022/01/10 10:16:21;;;;;;;0.30;0.30;;;6.00;29.40;;;;;;5076608;28;20190;-57
2022/01/10 10:18:49;;;;;;;0.40;0.40;;;6.00;99.90;;;;;;5080216;28;20190;-58
2022/01/10 10:21:20;;;;;;;0.40;0.40;;;6.10;73.20;;;;;;5064142;28;20222;-59
2022/01/10 10:23:51;;;;;;;0.63;0.63;;;6.30;99.90;;;;;;5076084;28;20626;-58
2022/01/10 10:26:24;;;;;;;0.47;0.47;;;6.40;1.00;;;;;;5077611;28;20187;-58
2022/01/10 10:28:53;;;;;;;0.40;0.40;;;6.50;63.40;;;;;;5059393;28;20217;-58
2022/01/10 10:31:31;;;;;;;0.40;0.40;;;6.50;1.00;;;;;;5073023;28;20222;-58
2022/01/10 10:34:03;;;;;;;0.40;0.40;;;6.50;1.00;;;;;;5078019;28;20342;-59
2022/01/10 10:36:32;;;;;;;0.40;0.40;;;6.50;1.00;;;;;;5075957;28;20218;-58
2022/01/10 10:39:03;;;;;;;0.40;0.40;;;6.40;1.00;;;;;;5076950;28;20243;-58
2022/01/10 10:41:30;;;;;;;0.40;0.40;;;6.30;1.00;;;;;;5076013;28;20245;-59
2022/01/10 10:43:57;;;;;;;0.40;0.40;;;6.40;68.40;;;;;;5062771;28;20557;-59
2022/01/10 10:46:27;;;;;;;0.30;0.30;;;6.40;1.00;;;;;;5045035;28;20695;-59
2022/01/10 10:49:00;;;;;;;0.40;0.40;;;6.40;1.00;;;;;;5075358;28;20226;-59
2022/01/10 10:51:33;;;;;;;0.40;0.40;;;6.50;3.20;;;;;;5074720;28;20280;-58
2022/01/10 10:54:13;;;;;;;0.40;0.40;;;6.60;1.00;;;;;;5067526;28;20197;-58
2022/01/10 10:56:43;;;;;;;0.50;0.50;;;6.40;1.00;;;;;;5062550;28;20654;-57
2022/01/10 10:59:12;;;;;;;0.47;0.47;;;6.30;1.00;;;;;;5073384;28;20198;-56
2022/01/10 11:01:40;;;;;;;0.40;0.40;;;6.20;1.00;;;;;;5077651;28;20260;-59
2022/01/10 11:04:09;;;;;;;0.40;0.40;;;6.30;1.00;;;;;;5078873;28;20257;-57
2022/01/10 11:06:39;;;;;;;0.40;0.40;;;6.40;21.90;;;;;;5082699;28;20186;-59
2022/01/10 11:09:14;;;;;;;0.47;0.47;;;6.60;99.90;;;;;;5075518;28;20194;-58
2022/01/10 11:11:44;;;;;;;0.30;0.30;;;6.80;20.90;;;;;;5057844;28;20309;-58
2022/01/10 11:14:17;;;;;;;0.40;0.40;;;7.00;1.00;;;;;;5074034;28;20670;-58
2022/01/10 11:16:48;;;;;;;0.40;0.40;;;7.30;1.00;;;;;;5076550;28;20202;-58
2022/01/10 11:19:19;;;;;;;0.40;0.40;;;7.30;1.00;;;;;;5077642;28;20219;-59
2022/01/10 11:22:06;;;;;;;0.40;0.40;;;7.30;1.00;;;;;;5080838;28;20234;-59
2022/01/10 11:24:43;;;;;;;0.40;0.40;;;7.30;1.00;;;;;;5080795;28;20231;-59
2022/01/10 11:27:31;;;;;;;0.40;0.40;;;7.10;1.00;;;;;;5064431;28;20212;-59
2022/01/10 11:30:02;;;;;;;0.40;0.40;;;6.80;1.00;;;;;;5079940;28;20187;-59
2022/01/10 11:32:54;;;;;;;0.40;0.40;;;6.90;1.00;;;;;;5069032;28;20274;-59
2022/01/10 11:35:51;;;;;;;0.40;0.40;;;6.70;1.00;;;;;;5077081;28;20191;-59
2022/01/10 11:38:25;;;;;;;0.40;0.40;;;6.90;1.00;;;;;;5062326;28;20595;-57
2022/01/10 11:40:59;;;;;;;0.40;0.40;;;6.70;1.00;;;;;;5063465;28;20322;-59
2022/01/10 11:44:03;;;;;;;0.40;0.40;;;7.60;60.70;;;;;;5079359;28;20193;-60
2022/01/10 11:46:46;;;;;;;0.30;0.30;;;8.60;99.90;;;;;;5072400;28;20193;-60
2022/01/10 11:49:13;;;;;;;0.40;0.40;;;8.70;99.90;;;;;;5082462;28;20186;-60
2022/01/10 11:51:46;;;;;;;0.30;0.30;;;8.70;99.90;;;;;;5080723;28;20531;-60
2022/01/10 11:54:17;;;;;;;0.40;0.40;;;8.10;99.90;;;;;;5077455;28;20775;-59
2022/01/10 11:56:49;;;;;;;0.50;0.50;;;8.00;1.00;;;;;;5076573;28;20217;-59
2022/01/10 11:59:34;;;;;;;0.40;0.40;;;8.00;1.00;;;;;;5060287;28;20202;-60
2022/01/10 12:02:25;;;;;;;0.37;0.37;;;8.00;99.90;;;;;;5080095;28;20206;-60
2022/01/10 12:05:00;;;;;;;0.40;0.40;;;8.20;1.00;;;;;;5076302;28;20263;-60
2022/01/10 12:07:28;;;;;;;0.40;0.40;;;8.50;1.00;;;;;;5074830;28;20514;-59
2022/01/10 12:10:17;;;;;;;0.40;0.40;;;8.70;99.90;;;;;;5060240;28;20584;-59
2022/01/10 12:12:49;;;;;;;45.30;26.00;;;8.80;99.90;;;;;;5079755;28;20255;-59
2022/01/10 12:15:16;;;;;;;48.67;24.73;;;8.50;99.90;;;;;;5080055;28;20198;-60
2022/01/10 12:17:43;;;;;;;52.20;27.53;;;8.60;99.90;;;;;;5078504;28;20263;-59
2022/01/10 12:20:11;;;;;;;48.83;21.13;;;8.60;99.90;;;;;;5080566;28;20198;-59
2022/01/10 12:22:39;;;;;;;42.83;25.20;;;8.70;99.90;;;;;;5076368;28;20234;-59
2022/01/10 12:25:08;;;;;;;42.70;21.90;;;8.70;99.90;;;;;;5075944;28;20849;-60
2022/01/10 12:27:36;;;;;;;43.37;21.73;;;8.80;99.90;;;;;;5080169;28;20668;-60
2022/01/10 12:30:06;;;;;;;43.67;22.63;;;8.80;99.90;;;;;;5079061;28;20227;-59
2022/01/10 12:32:35;;;;;;;34.13;18.27;;;8.60;99.90;;;;;;5075014;28;20198;-59
2022/01/10 12:35:02;;;;;;;40.63;20.20;;;8.50;99.90;;;;;;5077997;28;20267;-60
2022/01/10 12:37:29;;;;;;;41.23;20.60;;;8.40;1.00;;;;;;5077494;28;20723;-60
2022/01/10 12:39:56;;;;;;;37.37;21.33;;;8.30;1.00;;;;;;5060852;28;20202;-59
2022/01/10 12:42:29;;;;;;;39.93;20.23;;;8.40;1.00;;;;;;5079313;28;20198;-59
2022/01/10 12:44:56;;;;;;;35.50;20.90;;;8.30;1.00;;;;;;5077169;28;20190;-59
2022/01/10 12:47:26;;;;;;;40.80;20.80;;;8.20;1.00;;;;;;5076395;28;20206;-60
2022/01/10 12:49:54;;;;;;;37.53;20.07;;;8.30;1.00;;;;;;5065691;28;20194;-60
2022/01/10 12:52:24;;;;;;;40.43;21.63;;;8.40;99.90;;;;;;5074367;28;20202;-60
2022/01/10 12:54:51;;;;;;;32.60;19.20;;;9.20;99.90;;;;;;5076030;28;20301;-60
2022/01/10 12:57:18;;;;;;;37.93;19.73;;;9.50;99.90;;;;;;5078288;28;21112;-60
2022/01/10 12:59:45;;;;;;;42.13;20.40;;;9.20;91.70;;;;;;5060993;28;20198;-59
2022/01/10 13:02:12;;;;;;;39.87;20.00;;;9.40;99.90;;;;;;5062378;28;20689;-60
2022/01/10 13:05:04;;;;;;;39.83;19.53;;;9.80;15.00;;;;;;5067908;28;20675;-60
2022/01/10 13:07:38;;;;;;;41.80;19.97;;;10.60;1.00;;;;;;5058467;28;20702;-60
2022/01/10 13:10:08;;;;;;;46.17;20.93;;;10.50;1.00;;;;;;5059082;28;20197;-60
2022/01/10 13:12:35;;;;;;;31.60;18.13;;;10.60;1.00;;;;;;5058838;28;20246;-59
2022/01/10 13:15:11;;;;;;;33.07;18.43;;;10.50;1.00;;;;;;5074357;28;20194;-60
2022/01/10 13:17:40;;;;;;;42.47;21.13;;;10.50;1.00;;;;;;5076947;28;20575;-60
2022/01/10 13:20:10;;;;;;;53.93;21.80;;;10.20;1.00;;;;;;5078111;28;20277;-60